Time;durP1;ratioP1;P1;durP2;ratioP2;P2;SDS_P1;SDS_P2;PMS_P1;PMS_P2;Temp;Humidity;BMP_temperature;BMP_pressure;BME280_temperature;BME280_humidity;BME280_pressure;Samples;Min_cycle;Max_cycle;Signal;HPM_P1;HPM_P2
2023/07/11 00:00:10;;;;;;;6.75;2.95;;;;;;;19.57;100.00;98996.50;5033298;28;20032;-69
2023/07/11 00:02:35;;;;;;;4.95;3.40;;;;;;;19.37;100.00;98986.94;5020253;28;20032;-70
2023/07/11 00:05:02;;;;;;;5.25;3.55;;;;;;;19.40;100.00;99000.16;5025898;28;20017;-69
2023/07/11 00:07:27;;;;;;;7.90;3.45;;;;;;;19.37;100.00;99006.16;5028407;28;20036;-69
2023/07/11 00:09:53;;;;;;;7.78;3.50;;;;;;;19.37;100.00;99000.69;5033407;28;20037;-69
2023/07/11 00:12:20;;;;;;;6.32;3.50;;;;;;;19.25;100.00;98999.97;5033987;28;20021;-69
2023/07/11 00:14:45;;;;;;;5.85;3.45;;;;;;;19.14;100.00;98987.22;5041704;28;20093;-68
2023/07/11 00:17:11;;;;;;;4.90;3.30;;;;;;;19.07;100.00;99000.28;5024155;28;20037;-68
2023/07/11 00:19:49;;;;;;;4.65;3.17;;;;;;;19.04;100.00;98993.38;5041376;28;20032;-64
2023/07/11 00:22:15;;;;;;;5.85;3.40;;;;;;;18.97;100.00;98990.84;5031001;28;20025;-63
2023/07/11 00:24:40;;;;;;;6.80;2.95;;;;;;;18.95;100.00;98989.44;5031149;28;20021;-63
2023/07/11 00:27:06;;;;;;;10.73;3.40;;;;;;;18.89;100.00;98984.94;5029049;28;20171;-63
2023/07/11 00:29:31;;;;;;;4.95;2.80;;;;;;;18.94;100.00;98994.09;5028269;28;20036;-63
2023/07/11 00:31:56;;;;;;;5.32;2.85;;;;;;;18.87;100.00;98978.91;5027748;28;20041;-68
2023/07/11 00:34:22;;;;;;;8.35;3.25;;;;;;;18.78;100.00;98981.25;5044883;28;20021;-64
2023/07/11 00:36:47;;;;;;;5.47;2.80;;;;;;;18.70;100.00;98982.47;5025584;28;20021;-64
2023/07/11 00:39:15;;;;;;;4.47;2.85;;;;;;;18.71;100.00;98980.59;5032660;28;20384;-64
2023/07/11 00:41:41;;;;;;;4.47;2.63;;;;;;;18.73;100.00;98978.41;5040041;28;20025;-64
2023/07/11 00:44:14;;;;;;;6.15;2.70;;;;;;;18.69;100.00;98974.50;5022234;28;20061;-64
2023/07/11 00:46:40;;;;;;;6.22;3.20;;;;;;;18.57;100.00;98975.44;5035071;28;20544;-64
2023/07/11 00:49:08;;;;;;;5.05;2.85;;;;;;;18.53;100.00;98978.94;5019178;28;20033;-64
2023/07/11 00:51:41;;;;;;;5.60;3.10;;;;;;;18.44;100.00;98975.78;5047269;28;20025;-63
2023/07/11 00:54:10;;;;;;;5.43;3.05;;;;;;;18.37;100.00;98964.19;5044475;28;20024;-64
2023/07/11 00:56:40;;;;;;;7.78;2.92;;;;;;;18.42;100.00;98964.25;5052712;28;20494;-63
2023/07/11 00:59:07;;;;;;;7.82;2.97;;;;;;;18.51;100.00;98968.22;5035463;28;20484;-63
2023/07/11 01:01:33;;;;;;;4.00;2.85;;;;;;;18.42;100.00;98961.53;5032310;28;20025;-64
2023/07/11 01:03:59;;;;;;;3.83;2.60;;;;;;;18.52;100.00;98958.94;5032871;28;20371;-64
2023/07/11 01:06:27;;;;;;;4.45;2.53;;;;;;;18.52;100.00;98961.69;5049969;28;20024;-64
2023/07/11 01:08:57;;;;;;;6.03;2.80;;;;;;;18.39;100.00;98953.78;5037151;28;20045;-64
2023/07/11 01:11:23;;;;;;;;;;;;;;;18.33;100.00;98960.28;5041264;28;20034;-63
2023/07/11 01:13:50;;;;;;;4.13;2.50;;;;;;;18.25;100.00;98958.78;5043513;28;19964;-63
2023/07/11 01:16:15;;;;;;;7.22;3.67;;;;;;;18.24;100.00;98957.13;5045286;28;20401;-64
2023/07/11 01:18:41;;;;;;;8.93;2.90;;;;;;;18.27;100.00;98958.53;5028979;28;20017;-63
2023/07/11 01:21:08;;;;;;;3.58;2.33;;;;;;;18.30;100.00;98952.56;5032244;28;20528;-69
2023/07/11 01:23:34;;;;;;;8.40;2.75;;;;;;;18.33;100.00;98943.84;5033834;28;20029;-69
2023/07/11 01:26:06;;;;;;;4.25;2.95;;;;;;;18.30;100.00;98950.66;5031499;28;20068;-69
2023/07/11 01:28:32;;;;;;;6.60;2.92;;;;;;;18.28;100.00;98950.06;5028489;28;20475;-68
2023/07/11 01:30:57;;;;;;;8.55;3.05;;;;;;;18.30;100.00;98956.13;5032525;28;20044;-69
2023/07/11 01:33:25;;;;;;;4.28;2.80;;;;;;;18.29;100.00;98957.22;5033754;28;20104;-69
2023/07/11 01:35:54;;;;;;;5.53;3.38;;;;;;;18.22;100.00;98950.25;5030655;28;20044;-69
2023/07/11 01:38:22;;;;;;;7.28;3.45;;;;;;;18.23;100.00;98946.41;5043449;28;20120;-68
2023/07/11 01:40:48;;;;;;;6.55;3.22;;;;;;;18.15;100.00;98951.22;5029777;28;20033;-68
2023/07/11 01:43:34;;;;;;;8.05;2.60;;;;;;;18.08;100.00;98934.16;5034149;28;20039;-68
2023/07/11 01:46:00;;;;;;;6.22;3.30;;;;;;;18.04;100.00;98945.84;5025728;28;20057;-68
2023/07/11 01:48:25;;;;;;;5.28;3.00;;;;;;;17.99;100.00;98935.63;5040680;28;20492;-67
2023/07/11 01:50:51;;;;;;;5.07;3.22;;;;;;;18.15;100.00;98934.78;5031868;28;20035;-68
2023/07/11 01:53:18;;;;;;;6.90;3.08;;;;;;;18.04;100.00;98938.44;5034690;28;20133;-68
2023/07/11 01:55:53;;;;;;;6.95;3.20;;;;;;;17.92;100.00;98943.16;5032347;28;20137;-68
2023/07/11 01:58:18;;;;;;;4.22;3.03;;;;;;;17.83;100.00;98936.47;5023907;28;20115;-68
2023/07/11 02:00:44;;;;;;;5.38;3.15;;;;;;;17.81;100.00;98933.13;5022470;28;20472;-68
2023/07/11 02:03:09;;;;;;;4.13;2.90;;;;;;;17.72;100.00;98925.28;5032197;28;20102;-68
2023/07/11 02:05:34;;;;;;;6.45;3.00;;;;;;;17.72;100.00;98929.94;5017804;28;20026;-69
2023/07/11 02:08:00;;;;;;;6.35;3.13;;;;;;;17.71;100.00;98931.00;5030295;28;20036;-64
2023/07/11 02:10:25;;;;;;;5.53;3.40;;;;;;;17.74;100.00;98931.34;5026596;28;20021;-64
2023/07/11 02:12:51;;;;;;;7.43;3.47;;;;;;;17.74;100.00;98927.81;5033261;28;20108;-63
2023/07/11 02:15:16;;;;;;;7.30;3.42;;;;;;;17.70;100.00;98930.19;5039271;28;20025;-64
2023/07/11 02:17:41;;;;;;;5.90;3.47;;;;;;;17.72;100.00;98925.28;5028238;28;20037;-64
2023/07/11 02:20:08;;;;;;;6.90;3.80;;;;;;;17.65;100.00;98923.78;5024090;28;20030;-64
2023/07/11 02:22:34;;;;;;;5.22;3.55;;;;;;;17.52;100.00;98927.66;5034303;28;20082;-63
2023/07/11 02:24:59;;;;;;;6.82;3.55;;;;;;;17.53;100.00;98930.16;5027779;28;20041;-63
2023/07/11 02:27:25;;;;;;;7.90;3.55;;;;;;;17.49;100.00;98925.41;5029079;28;20037;-63
2023/07/11 02:29:50;;;;;;;7.88;4.00;;;;;;;17.42;100.00;98919.25;5029202;28;20021;-64
2023/07/11 02:32:15;;;;;;;6.32;3.70;;;;;;;17.37;100.00;98917.28;5035087;28;20099;-64
2023/07/11 02:34:41;;;;;;;9.23;3.88;;;;;;;17.38;100.00;98918.13;5028070;28;20109;-65
2023/07/11 02:37:06;;;;;;;9.95;4.45;;;;;;;17.47;100.00;98916.63;5030934;28;20021;-68
2023/07/11 02:39:31;;;;;;;6.07;3.97;;;;;;;17.53;100.00;98919.22;5031331;28;20025;-69
2023/07/11 02:41:57;;;;;;;5.22;3.28;;;;;;;17.47;100.00;98922.91;5037451;28;20044;-72
2023/07/11 02:44:22;;;;;;;9.05;3.60;;;;;;;17.35;100.00;98929.53;5027250;28;20036;-68
2023/07/11 02:46:48;;;;;;;8.30;3.90;;;;;;;17.24;100.00;98923.06;5041866;28;21024;-69
2023/07/11 02:49:13;;;;;;;5.10;3.28;;;;;;;17.19;100.00;98920.22;5047722;28;20029;-69
2023/07/11 02:51:39;;;;;;;8.25;3.70;;;;;;;17.06;100.00;98915.88;5022820;28;20115;-68
2023/07/11 02:54:06;;;;;;;7.15;3.70;;;;;;;17.00;100.00;98916.81;5010462;28;20094;-68
2023/07/11 02:56:32;;;;;;;8.07;3.63;;;;;;;17.01;100.00;98915.75;5025255;28;20029;-67
2023/07/11 02:59:00;;;;;;;5.82;3.65;;;;;;;16.99;100.00;98915.16;5025217;28;20040;-63
2023/07/11 03:01:29;;;;;;;7.40;3.60;;;;;;;17.04;100.00;98905.16;5031259;28;20109;-63
2023/07/11 03:03:55;;;;;;;5.70;3.63;;;;;;;17.04;100.00;98901.59;5024169;28;20071;-64
2023/07/11 03:06:20;;;;;;;7.47;3.78;;;;;;;16.97;100.00;98893.53;5037269;28;20025;-63
2023/07/11 03:08:45;;;;;;;5.68;3.60;;;;;;;17.02;100.00;98907.28;5036959;28;20052;-64
2023/07/11 03:11:11;;;;;;;7.32;4.00;;;;;;;17.02;100.00;98906.47;5031256;28;20029;-64
2023/07/11 03:13:36;;;;;;;5.10;3.50;;;;;;;17.05;100.00;98895.88;5030120;28;20029;-64
2023/07/11 03:16:03;;;;;;;6.10;4.00;;;;;;;17.04;100.00;98896.13;5028915;28;20033;-64
2023/07/11 03:18:29;;;;;;;7.40;4.53;;;;;;;17.01;100.00;98897.44;5026898;28;20025;-63
2023/07/11 03:20:58;;;;;;;5.90;3.88;;;;;;;17.04;100.00;98890.66;5033217;28;20032;-66
2023/07/11 03:23:23;;;;;;;8.15;3.95;;;;;;;17.07;100.00;98884.72;5037848;28;20071;-63
2023/07/11 03:25:49;;;;;;;8.85;3.45;;;;;;;17.03;100.00;98889.03;5037519;28;20032;-63
2023/07/11 03:28:15;;;;;;;7.43;3.40;;;;;;;17.10;100.00;98895.16;5026576;28;20173;-63
2023/07/11 03:30:40;;;;;;;7.80;3.63;;;;;;;17.11;100.00;98894.09;5030479;28;20103;-63
2023/07/11 03:33:06;;;;;;;6.88;3.30;;;;;;;17.13;100.00;98905.59;5037231;28;20503;-63
2023/07/11 03:35:32;;;;;;;8.05;3.67;;;;;;;17.06;100.00;98902.19;5053417;28;20037;-63
2023/07/11 03:37:57;;;;;;;6.35;3.42;;;;;;;16.99;100.00;98896.84;5028877;28;20056;-63
2023/07/11 03:40:24;;;;;;;6.38;3.65;;;;;;;16.89;100.00;98898.56;5031633;28;20020;-60
2023/07/11 03:42:49;;;;;;;4.22;2.97;;;;;;;16.80;100.00;98892.66;5031286;28;20083;-58
2023/07/11 03:45:15;;;;;;;6.97;3.10;;;;;;;16.80;100.00;98890.75;5042435;28;20025;-58
2023/07/11 03:47:40;;;;;;;5.25;3.33;;;;;;;16.80;100.00;98885.28;5023376;28;20451;-58
2023/07/11 03:50:06;;;;;;;8.85;3.25;;;;;;;16.75;100.00;98882.41;5026263;28;20106;-59
2023/07/11 03:52:31;;;;;;;7.38;3.90;;;;;;;16.83;100.00;98875.75;5033446;28;20033;-59
2023/07/11 03:54:57;;;;;;;4.63;3.30;;;;;;;16.81;100.00;98881.47;5021552;28;20500;-59
2023/07/11 03:57:23;;;;;;;6.05;3.63;;;;;;;16.80;100.00;98885.28;5035922;28;20403;-65
2023/07/11 03:59:49;;;;;;;7.45;3.60;;;;;;;16.78;100.00;98881.94;5026144;28;20036;-67
2023/07/11 04:02:15;;;;;;;7.95;3.42;;;;;;;16.77;100.00;98893.97;5030460;28;20037;-65
2023/07/11 04:04:42;;;;;;;11.32;4.30;;;;;;;16.80;100.00;98888.00;5027762;28;20468;-68
2023/07/11 04:07:07;;;;;;;7.05;3.72;;;;;;;16.88;100.00;98880.50;5028762;28;20018;-69
2023/07/11 04:09:33;;;;;;;7.78;3.92;;;;;;;16.98;100.00;98872.53;5033480;28;20017;-67
2023/07/11 04:11:58;;;;;;;7.45;3.33;;;;;;;17.08;100.00;98873.53;5038742;28;20034;-66
2023/07/11 04:14:24;;;;;;;14.85;4.03;;;;;;;17.25;100.00;98865.38;5044445;28;20116;-65
2023/07/11 04:16:51;;;;;;;6.03;3.97;;;;;;;17.36;100.00;98871.84;5039694;28;20036;-65
2023/07/11 04:19:19;;;;;;;7.18;3.70;;;;;;;17.41;100.00;98865.66;5047434;28;20077;-65
2023/07/11 04:21:44;;;;;;;11.50;4.10;;;;;;;17.50;100.00;98867.75;5030701;28;20021;-65
2023/07/11 04:24:16;;;;;;;5.88;3.42;;;;;;;17.65;100.00;98861.69;5034154;28;20037;-66
2023/07/11 04:26:42;;;;;;;5.70;3.63;;;;;;;17.63;100.00;98863.88;5023200;28;20040;-65
2023/07/11 04:29:07;;;;;;;7.15;3.45;;;;;;;17.72;100.00;98869.75;5046633;28;20393;-65
2023/07/11 04:31:33;;;;;;;7.75;4.10;;;;;;;17.69;100.00;98842.88;5088442;22;20049;-71
2023/07/11 04:33:58;;;;;;;9.55;4.30;;;;;;;17.92;100.00;98869.25;5070016;28;20111;-67
2023/07/11 04:36:23;;;;;;;6.28;3.67;;;;;;;18.01;100.00;98856.81;5065977;28;20016;-67
2023/07/11 04:38:48;;;;;;;5.70;3.40;;;;;;;18.22;100.00;98859.88;5068101;28;20351;-67
2023/07/11 04:41:14;;;;;;;6.43;3.80;;;;;;;18.39;100.00;98857.91;5074666;28;20495;-67
2023/07/11 04:43:39;;;;;;;7.68;3.83;;;;;;;18.43;100.00;98845.38;5056160;28;20040;-67
2023/07/11 04:46:06;;;;;;;8.88;4.38;;;;;;;18.71;100.00;98857.25;5073775;28;20024;-68
2023/07/11 04:48:33;;;;;;;5.18;3.35;;;;;;;18.85;100.00;98857.72;5050752;28;20051;-67
2023/07/11 04:51:00;;;;;;;7.68;3.85;;;;;;;18.90;100.00;98852.28;5075511;28;20469;-67
2023/07/11 04:53:27;;;;;;;5.88;3.83;;;;;;;19.05;100.00;98860.69;5055169;28;20028;-67
2023/07/11 04:56:03;;;;;;;9.07;3.80;;;;;;;19.11;100.00;98854.16;5063732;28;20106;-67
2023/07/11 04:58:30;;;;;;;9.15;4.30;;;;;;;19.34;100.00;98847.56;5068519;28;20028;-67
2023/07/11 05:01:00;;;;;;;8.93;3.83;;;;;;;19.54;100.00;98854.31;5062606;28;20270;-68
2023/07/11 05:03:26;;;;;;;6.88;3.67;;;;;;;19.57;100.00;98853.78;5057213;28;20071;-67
2023/07/11 05:05:51;;;;;;;7.63;3.75;;;;;;;19.61;100.00;98841.22;5067686;28;20028;-67
2023/07/11 05:08:17;;;;;;;12.65;3.95;;;;;;;19.66;100.00;98836.63;5069204;28;20021;-76
2023/07/11 05:11:05;;;;;;;9.52;4.07;;;;;;;19.85;100.00;98838.97;5051515;28;20017;-78
2023/07/11 05:13:32;;;;;;;8.30;4.27;;;;;;;19.85;100.00;98842.53;5068138;28;20447;-77
2023/07/11 05:16:02;;;;;;;9.82;5.57;;;;;;;19.66;100.00;98844.84;5077675;28;20028;-76
2023/07/11 05:18:29;;;;;;;11.13;6.10;;;;;;;19.67;100.00;98837.44;5080467;28;20024;-74
2023/07/11 05:20:58;;;;;;;15.88;7.15;;;;;;;19.56;100.00;98835.66;5042615;28;20508;-77
2023/07/11 05:23:26;;;;;;;12.48;6.15;;;;;;;19.61;100.00;98843.94;5065189;28;20028;-75
2023/07/11 05:25:51;;;;;;;11.93;6.10;;;;;;;19.68;100.00;98831.69;5070205;28;20050;-73
2023/07/11 05:28:17;;;;;;;8.90;5.70;;;;;;;19.80;100.00;98827.94;5064113;28;20469;-74
2023/07/11 05:30:43;;;;;;;9.88;4.95;;;;;;;19.88;100.00;98824.69;5056658;28;20028;-73
2023/07/11 05:33:09;;;;;;;11.75;5.55;;;;;;;19.85;100.00;98820.56;5067372;28;20430;-73
2023/07/11 05:35:45;;;;;;;8.57;4.93;;;;;;;20.08;100.00;98813.84;5062665;28;20040;-73
2023/07/11 05:38:11;;;;;;;7.28;4.40;;;;;;;20.49;100.00;98836.06;5074617;28;20021;-73
2023/07/11 05:40:38;;;;;;;7.97;4.90;;;;;;;20.41;100.00;98828.34;5064898;28;20036;-73
2023/07/11 05:43:04;;;;;;;7.15;4.80;;;;;;;21.01;100.00;98837.09;5060780;28;20024;-74
2023/07/11 05:45:29;;;;;;;7.78;4.15;;;;;;;21.24;100.00;98825.59;5066081;28;20035;-73
2023/07/11 05:47:54;;;;;;;10.35;4.45;;;;;;;21.36;100.00;98810.78;5068133;28;20028;-74
2023/07/11 05:50:21;;;;;;;8.98;4.15;;;;;;;21.59;100.00;98820.47;5061045;28;20032;-74
2023/07/11 05:52:47;;;;;;;9.05;3.67;;;;;;;22.01;100.00;98811.88;5071828;28;20024;-71
2023/07/11 05:55:12;;;;;;;11.32;4.30;;;;;;;22.39;100.00;98822.56;5064242;28;20054;-72
2023/07/11 05:57:37;;;;;;;13.55;4.18;;;;;;;22.56;100.00;98811.19;5058092;28;20025;-75
2023/07/11 06:00:04;;;;;;;13.20;3.70;;;;;;;22.87;100.00;98804.47;5056332;28;20073;-72
2023/07/11 06:02:30;;;;;;;11.93;3.95;;;;;;;23.26;100.00;98803.69;5063117;28;20043;-75
2023/07/11 06:04:55;;;;;;;12.20;3.65;;;;;;;23.88;100.00;98809.56;5055371;28;20036;-77
2023/07/11 06:07:20;;;;;;;8.95;3.47;;;;;;;24.26;100.00;98804.19;5055086;28;20493;-80
2023/07/11 06:09:46;;;;;;;10.35;3.65;;;;;;;24.58;100.00;98811.91;5072130;28;20111;-72
2023/07/11 06:12:11;;;;;;;7.05;3.20;;;;;;;24.86;100.00;98806.53;5050779;28;20037;-72
2023/07/11 06:14:36;;;;;;;5.53;3.33;;;;;;;25.09;100.00;98797.34;5054089;28;20420;-72
2023/07/11 06:17:02;;;;;;;6.90;3.67;;;;;;;24.86;100.00;98806.53;5063799;28;20025;-71
2023/07/11 06:19:27;;;;;;;10.25;3.50;;;;;;;25.10;100.00;98806.50;5043403;28;20073;-75
2023/07/11 06:21:53;;;;;;;9.35;3.60;;;;;;;25.52;100.00;98799.25;5046657;28;20036;-75
2023/07/11 06:24:18;;;;;;;13.20;3.90;;;;;;;25.89;100.00;98801.16;5064455;28;20029;-75
2023/07/11 06:26:43;;;;;;;10.30;3.15;;;;;;;26.42;100.00;98795.13;5073359;28;20051;-78
2023/07/11 06:29:09;;;;;;;11.88;4.05;;;;;;;26.79;100.00;98798.84;5048345;28;20067;-73
2023/07/11 06:31:34;;;;;;;8.75;3.65;;;;;;;26.95;100.00;98804.88;5054103;28;20462;-77
2023/07/11 06:33:59;;;;;;;9.00;3.40;;;;;;;27.25;100.00;98772.03;5061263;28;20035;-76
2023/07/11 06:36:25;;;;;;;12.52;3.70;;;;;;;27.70;100.00;98786.75;5071175;28;20017;-76
2023/07/11 06:38:50;;;;;;;8.52;3.33;;;;;;;27.82;95.39;98788.16;5070811;28;20408;-76
2023/07/11 06:41:15;;;;;;;7.13;3.38;;;;;;;28.24;91.72;98789.50;5065342;28;20070;-76
2023/07/11 06:43:41;;;;;;;8.68;3.70;;;;;;;28.44;90.67;98765.09;5063047;28;20025;-77
2023/07/11 06:46:06;;;;;;;7.40;3.45;;;;;;;28.87;85.15;98778.28;5067214;28;20071;-76
2023/07/11 06:48:32;;;;;;;7.28;3.13;;;;;;;28.92;80.57;98790.06;5059622;28;20089;-75
2023/07/11 06:51:00;;;;;;;7.47;2.90;;;;;;;29.55;77.32;98787.03;5071147;28;20078;-74
2023/07/11 06:53:31;;;;;;;8.90;3.28;;;;;;;30.51;71.75;98779.25;5079381;28;20031;-78
2023/07/11 06:55:57;;;;;;;10.60;3.20;;;;;;;32.70;61.10;98776.97;5063315;28;20067;-77
2023/07/11 06:58:23;;;;;;;6.15;3.42;;;;;;;33.73;56.37;98772.84;5064498;28;20063;-79
2023/07/11 07:00:54;;;;;;;5.90;3.00;;;;;;;35.00;52.51;98772.88;5083496;28;20035;-77
2023/07/11 07:03:20;;;;;;;5.18;2.55;;;;;;;36.49;48.36;98770.63;5077117;28;20035;-77
2023/07/11 07:05:54;;;;;;;9.82;3.17;;;;;;;36.84;45.23;98773.22;5054319;28;20123;-77
2023/07/11 07:08:21;;;;;;;7.47;2.92;;;;;;;37.48;43.75;98767.66;5057255;28;20039;-73
2023/07/11 07:10:47;;;;;;;8.48;2.70;;;;;;;38.79;41.52;98767.34;5049880;28;20017;-76
2023/07/11 07:13:13;;;;;;;9.73;2.90;;;;;;;39.96;39.90;98770.38;5069188;28;20398;-74
2023/07/11 07:15:39;;;;;;;3.95;2.60;;;;;;;39.39;39.13;98749.13;5079439;28;20040;-73
2023/07/11 07:18:04;;;;;;;5.25;2.50;;;;;;;39.22;37.80;98749.84;5074215;28;20063;-74
2023/07/11 07:20:29;;;;;;;8.63;2.70;;;;;;;40.76;35.39;98758.69;5076466;28;20119;-73
2023/07/11 07:22:55;;;;;;;6.05;2.80;;;;;;;40.86;34.94;98748.53;5070629;28;20371;-74
2023/07/11 07:25:20;;;;;;;5.20;2.63;;;;;;;40.28;34.47;98739.25;5076806;28;20485;-74
2023/07/11 07:27:45;;;;;;;11.70;2.80;;;;;;;40.19;33.75;98736.78;5056845;28;20282;-73
2023/07/11 07:30:11;;;;;;;11.88;2.60;;;;;;;40.03;33.38;98762.69;5072411;28;20875;-74
2023/07/11 07:32:37;;;;;;;4.43;2.67;;;;;;;39.61;33.90;98749.22;5075445;28;20546;-74
2023/07/11 07:35:02;;;;;;;8.57;2.72;;;;;;;40.07;33.79;98752.16;5055268;28;20350;-74
2023/07/11 07:37:28;;;;;;;6.05;2.70;;;;;;;41.21;32.49;98741.97;5061775;28;20078;-74
2023/07/11 07:39:53;;;;;;;8.27;2.85;;;;;;;41.28;32.23;98741.94;5073841;28;20505;-74
2023/07/11 07:42:18;;;;;;;9.13;3.20;;;;;;;41.66;31.98;98738.53;5075894;28;20027;-74
2023/07/11 07:44:43;;;;;;;6.28;2.75;;;;;;;42.39;31.46;98735.63;5070055;28;20275;-73
2023/07/11 07:47:09;;;;;;;12.17;3.37;;;;;;;43.50;30.23;98722.25;5066534;28;20031;-73
2023/07/11 07:49:34;;;;;;;8.83;2.80;;;;;;;42.65;31.25;98730.50;5088046;28;20665;-74
2023/07/11 07:51:59;;;;;;;9.93;2.97;;;;;;;42.92;30.57;98722.13;5072644;28;20285;-74
2023/07/11 07:54:26;;;;;;;6.07;2.70;;;;;;;42.47;30.35;98731.50;5077950;28;20752;-74
2023/07/11 07:56:52;;;;;;;4.50;2.33;;;;;;;43.31;29.71;98723.69;5066981;28;20024;-73
2023/07/11 07:59:17;;;;;;;7.03;2.50;;;;;;;42.41;30.38;98727.47;5067170;28;20505;-74
2023/07/11 08:01:43;;;;;;;5.82;2.40;;;;;;;42.70;30.19;98715.81;5067581;28;20032;-71
2023/07/11 08:04:08;;;;;;;6.37;2.33;;;;;;;43.33;29.78;98712.69;5074996;28;20024;-74
2023/07/11 08:06:33;;;;;;;4.07;2.67;;;;;;;43.27;29.57;98715.22;5075533;28;20327;-72
2023/07/11 08:08:58;;;;;;;3.33;2.20;;;;;;;44.26;29.11;98716.25;5066266;28;20327;-72
2023/07/11 08:11:24;;;;;;;3.77;2.50;;;;;;;42.22;29.70;98714.63;5066503;28;20283;-72
2023/07/11 08:13:49;;;;;;;7.45;2.40;;;;;;;42.60;29.92;98711.06;5055604;28;20407;-72
2023/07/11 08:16:16;;;;;;;5.40;2.38;;;;;;;43.93;28.64;98702.47;5058465;28;20116;-73
2023/07/11 08:18:41;;;;;;;5.68;3.05;;;;;;;44.50;28.28;98688.56;5074247;28;20432;-71
2023/07/11 08:21:07;;;;;;;3.50;2.60;;;;;;;44.68;27.72;98702.50;5083342;28;20020;-72
2023/07/11 08:23:32;;;;;;;4.63;2.57;;;;;;;44.33;28.17;98704.72;5067697;28;20329;-71
2023/07/11 08:25:57;;;;;;;10.13;2.90;;;;;;;44.33;28.37;98699.00;5081176;28;20831;-72
2023/07/11 08:28:22;;;;;;;4.35;2.65;;;;;;;43.70;28.99;98697.53;5052088;28;20282;-71
2023/07/11 08:30:49;;;;;;;4.50;2.90;;;;;;;43.44;29.29;98689.75;5062936;28;20024;-72
2023/07/11 08:33:14;;;;;;;6.82;3.10;;;;;;;42.80;29.75;98674.28;5069544;28;20037;-71
2023/07/11 08:35:40;;;;;;;8.30;2.90;;;;;;;42.87;29.72;98668.53;5036856;28;20559;-72
2023/07/11 08:38:14;;;;;;;6.38;2.40;;;;;;;43.44;29.42;98678.38;5054233;28;20080;-71
2023/07/11 08:40:42;;;;;;;3.95;2.50;;;;;;;42.81;30.11;98658.81;5061644;28;20103;-73
2023/07/11 08:43:13;;;;;;;7.93;3.13;;;;;;;43.95;29.25;98682.09;5054174;28;20441;-71
2023/07/11 08:45:53;;;;;;;7.13;2.33;;;;;;;42.92;29.48;98670.91;5064382;28;20070;-71
2023/07/11 08:48:36;;;;;;;5.43;2.85;;;;;;;42.74;30.30;98668.22;5050799;28;20029;-72
2023/07/11 08:51:04;;;;;;;5.25;3.38;;;;;;;43.71;29.83;98667.81;5038248;28;20066;-74
2023/07/11 08:53:55;;;;;;;6.18;3.03;;;;;;;44.80;28.42;98659.84;5046213;28;20032;-74
2023/07/11 08:56:29;;;;;;;6.72;2.50;;;;;;;45.68;28.36;98657.56;5060376;28;20116;-73
2023/07/11 08:58:57;;;;;;;5.35;2.85;;;;;;;45.85;27.62;98646.94;5070018;28;20039;-73
2023/07/11 09:01:36;;;;;;;3.97;2.90;;;;;;;44.54;28.75;98655.88;5050857;28;20367;-74
2023/07/11 09:04:04;;;;;;;8.25;3.10;;;;;;;45.12;27.90;98646.97;5064570;28;20020;-72
2023/07/11 09:06:43;;;;;;;4.57;2.60;;;;;;;45.26;28.45;98646.66;5039373;28;20025;-73
2023/07/11 09:09:10;;;;;;;5.28;2.50;;;;;;;46.20;27.51;98633.03;5071932;28;20028;-74
2023/07/11 09:12:13;;;;;;;4.88;2.58;;;;;;;46.59;27.41;98634.00;5057853;28;20025;-72
2023/07/11 09:14:44;;;;;;;4.68;2.90;;;;;;;46.95;26.84;98642.41;5054651;28;20575;-74
2023/07/11 09:17:20;;;;;;;3.63;2.78;;;;;;;46.04;27.63;98636.72;5066692;28;20036;-72
2023/07/11 09:20:06;;;;;;;6.32;2.90;;;;;;;45.92;28.29;98635.34;5071655;28;20096;-72
2023/07/11 09:22:56;;;;;;;4.80;2.87;;;;;;;46.29;27.49;98625.38;5083410;28;20021;-73
2023/07/11 09:25:36;;;;;;;3.00;2.58;;;;;;;45.82;28.30;98597.19;5069097;28;20683;-72
2023/07/11 09:28:10;;;;;;;7.00;2.70;;;;;;;44.06;29.47;98616.38;5051990;28;20025;-72
2023/07/11 09:30:38;;;;;;;8.52;3.53;;;;;;;45.54;28.77;98609.28;5052096;28;20020;-72
2023/07/11 09:33:23;;;;;;;3.08;2.78;;;;;;;45.79;28.68;98615.22;5071632;28;20044;-72
2023/07/11 09:35:50;;;;;;;4.30;2.70;;;;;;;45.44;29.29;98605.47;5048743;28;20033;-72
2023/07/11 09:38:38;;;;;;;3.55;2.63;;;;;;;46.69;28.55;98592.84;5086571;28;20023;-75
2023/07/11 09:41:03;;;;;;;4.65;2.90;;;;;;;47.94;27.30;98591.81;5067769;28;20017;-74
2023/07/11 09:43:28;;;;;;;4.53;2.50;;;;;;;49.08;26.34;98591.81;5079890;28;20025;-72
2023/07/11 09:45:54;;;;;;;5.83;2.73;;;;;;;49.09;26.93;98585.59;5071676;28;20028;-73
2023/07/11 09:48:30;;;;;;;7.63;2.87;;;;;;;46.90;28.28;98595.09;5067198;28;20329;-73
2023/07/11 09:51:24;;;;;;;3.47;2.42;;;;;;;47.85;27.87;98595.41;5053653;28;20287;-73
2023/07/11 09:53:54;;;;;;;4.03;2.85;;;;;;;45.90;29.15;98592.88;5051163;28;20045;-72
2023/07/11 09:56:20;;;;;;;4.40;2.75;;;;;;;46.27;29.37;98587.88;5040209;28;20020;-72
2023/07/11 09:58:48;;;;;;;6.18;3.15;;;;;;;45.33;30.25;98577.16;5071112;28;20158;-74
2023/07/11 10:01:36;;;;;;;4.57;2.85;;;;;;;45.33;30.48;98577.16;5049682;28;20049;-73
2023/07/11 10:04:06;;;;;;;6.97;3.17;;;;;;;47.55;29.06;98570.19;5069200;28;20417;-72
2023/07/11 10:06:41;;;;;;;7.32;2.97;;;;;;;46.08;30.45;98578.16;5071464;28;20141;-71
2023/07/11 10:09:12;;;;;;;4.43;2.88;;;;;;;44.68;32.24;98574.88;5071127;28;20017;-72
2023/07/11 10:11:37;;;;;;;4.63;2.70;;;;;;;45.39;31.26;98561.06;5043123;28;20036;-72
2023/07/11 10:14:02;;;;;;;4.95;3.35;;;;;;;45.22;31.25;98565.16;5055446;28;20041;-73
2023/07/11 10:16:32;;;;;;;9.37;2.90;;;;;;;46.23;31.03;98564.25;5050150;28;20051;-74
2023/07/11 10:18:57;;;;;;;5.75;3.35;;;;;;;47.90;29.10;98556.75;5052531;28;20478;-72
2023/07/11 10:21:25;;;;;;;6.57;3.37;;;;;;;47.38;28.32;98563.75;5068746;28;20111;-72
2023/07/11 10:23:52;;;;;;;6.10;3.17;;;;;;;45.78;30.31;98567.09;5073954;28;20029;-74
2023/07/11 10:26:20;;;;;;;;;;;;;;;45.36;30.47;98564.81;5065553;28;20021;-72
2023/07/11 10:28:48;;;;;;;;;;;;;;;44.74;30.85;98563.72;5061694;28;19948;-72
2023/07/11 10:31:19;;;;;;;5.60;3.20;;;;;;;45.76;30.37;98553.25;5027948;28;1068503;-73
2023/07/11 10:33:50;;;;;;;3.88;3.30;;;;;;;43.99;31.58;98551.72;5070503;28;20102;-73
2023/07/11 10:36:22;;;;;;;5.70;3.50;;;;;;;44.68;30.92;98532.06;5061913;28;20386;-74
2023/07/11 10:38:59;;;;;;;3.97;3.05;;;;;;;45.97;30.37;98540.47;5056150;28;20032;-74
2023/07/11 10:41:34;;;;;;;4.93;3.28;;;;;;;47.62;28.54;98539.22;5074070;28;20584;-74
2023/07/11 10:44:02;;;;;;;7.60;3.28;;;;;;;45.99;29.24;98554.31;5068117;28;20477;-74
2023/07/11 10:46:38;;;;;;;4.90;3.22;;;;;;;45.23;29.84;98535.34;5053155;28;20032;-74
2023/07/11 10:49:12;;;;;;;7.35;3.50;;;;;;;45.44;29.54;98531.97;5043005;28;20029;-74
2023/07/11 10:51:49;;;;;;;6.82;3.20;;;;;;;47.00;29.75;98524.41;5046993;28;20037;-74
2023/07/11 10:54:36;;;;;;;;;;;;;;;47.10;29.08;98528.25;5086422;28;20020;-74
2023/07/11 10:57:08;;;;;;;5.77;2.97;;;;;;;49.04;27.82;98523.00;5078109;28;20392;-74
2023/07/11 10:59:33;;;;;;;5.15;3.20;;;;;;;48.60;28.33;98502.16;5052935;28;20093;-74
2023/07/11 11:02:16;;;;;;;5.18;2.90;;;;;;;49.45;26.52;98497.94;5043025;28;20021;-74
2023/07/11 11:04:47;;;;;;;4.40;3.13;;;;;;;49.25;26.58;98504.09;5066192;28;20033;-74
2023/07/11 11:07:43;;;;;;;4.25;3.10;;;;;;;49.40;26.74;98497.78;5054082;28;20037;-75
2023/07/11 11:10:26;;;;;;;5.57;2.93;;;;;;;49.45;26.11;98491.41;5064310;28;20016;-77
2023/07/11 11:13:24;;;;;;;4.38;2.75;;;;;;;49.61;26.33;98475.94;5069835;28;20122;-77
2023/07/11 11:15:56;;;;;;;4.53;2.97;;;;;;;51.45;25.42;98482.13;5067395;28;20063;-78
2023/07/11 11:18:35;;;;;;;4.13;2.80;;;;;;;52.09;25.08;98468.53;5053743;28;20085;-77
2023/07/11 11:21:32;;;;;;;5.93;2.85;;;;;;;48.57;26.65;98483.00;5051330;28;20017;-77
2023/07/11 11:24:19;;;;;;;7.20;3.50;;;;;;;49.54;26.42;98462.63;5058139;28;20512;-77
2023/07/11 11:27:09;;;;;;;4.30;3.13;;;;;;;50.45;25.41;98455.31;5046614;28;20052;-77
2023/07/11 11:29:51;;;;;;;5.93;3.17;;;;;;;50.39;25.32;98463.03;5077834;28;20033;-78
2023/07/11 11:32:34;;;;;;;7.93;3.30;;;;;;;49.73;26.16;98458.56;5065403;28;20024;-76
2023/07/11 11:35:10;;;;;;;7.13;3.13;;;;;;;50.60;25.44;98466.97;5046161;28;20041;-78